Time,TemperatureF,DewpointF,PressureIn,WindDirection,WindDirectionDegrees,WindSpeedMPH,WindSpeedGustMPH,Humidity,HourlyPrecipIn,Conditions,Clouds,dailyrainin,SoftwareType,DateUTC
2013-01-02 00:05:00,6.4,-1.5,28.73,South,179,6.0,7.2,69,0.00,,,-99.99,FreeWX-Wi 1.01,2013-01-02 06:05:00,
2013-01-02 00:10:00,6.1,-1.8,28.73,South,178,6.0,8.1,69,0.00,,,-99.99,FreeWX-Wi 1.01,2013-01-02 06:10:00,
2013-01-02 00:15:00,5.9,-2.0,28.73,South,179,6.0,7.2,69,0.00,,,-99.99,FreeWX-Wi 1.01,2013-01-02 06:15:00,
2013-01-02 00:20:00,5.9,-2.0,28.73,South,179,6.0,7.6,69,0.00,,,-99.99,FreeWX-Wi 1.01,2013-01-02 06:20:00,
2013-01-02 00:25:00,5.7,-2.2,28.73,South,179,6.0,7.6,69,0.00,,,-99.99,FreeWX-Wi 1.01,2013-01-02 06:25:00,
2013-01-02 00:30:00,5.4,-2.6,28.73,South,179,6.0,7.6,69,0.00,,,-99.99,FreeWX-Wi 1.01,2013-01-02 06:30:00,
2013-01-02 00:35:00,5.0,-2.9,28.73,South,178,6.0,7.6,69,0.00,,,-99.99,FreeWX-Wi 1.01,2013-01-02 06:35:00,
2013-01-02 00:40:00,4.8,-3.1,28.73,South,178,6.0,8.1,69,0.00,,,-99.99,FreeWX-Wi 1.01,2013-01-02 06:40:00,
2013-01-02 00:45:00,4.6,-3.3,28.70,South,177,6.0,8.1,69,0.00,,,-99.99,FreeWX-Wi 1.01,2013-01-02 06:45:00,
2013-01-02 00:50:00,4.5,-3.5,28.70,South,177,6.0,8.3,69,0.00,,,-99.99,FreeWX-Wi 1.01,2013-01-02 06:50:00,
2013-01-02 00:56:00,4.5,-3.5,28.70,South,178,6.0,7.6,69,0.00,,,-99.99,FreeWX-Wi 1.01,2013-01-02 06:56:00,
2013-01-02 01:01:00,4.5,-3.5,28.70,South,179,6.0,8.3,69,0.00,,,-99.99,FreeWX-Wi 1.01,2013-01-02 07:01:00,
2013-01-02 01:06:00,4.5,-3.5,28.70,South,180,7.0,8.7,69,0.00,,,-99.99,FreeWX-Wi 1.01,2013-01-02 07:06:00,
2013-01-02 01:11:00,4.5,-3.5,28.70,South,180,7.0,8.7,69,0.00,,,-99.99,FreeWX-Wi 1.01,2013-01-02 07:11:00,
2013-01-02 01:16:00,4.5,-3.5,28.70,South,181,7.0,10.1,69,0.00,,,-99.99,FreeWX-Wi 1.01,2013-01-02 07:16:00,
2013-01-02 01:21:00,4.5,-3.5,28.70,South,183,7.0,10.1,69,0.00,,,-99.99,FreeWX-Wi 1.01,2013-01-02 07:21:00,
2013-01-02 01:26:00,4.5,-3.5,28.70,South,185,7.0,10.1,69,0.00,,,-99.99,FreeWX-Wi 1.01,2013-01-02 07:26:00,
2013-01-02 01:31:00,4.3,-3.6,28.70,South,187,8.0,8.7,69,0.00,,,-99.99,FreeWX-Wi 1.01,2013-01-02 07:31:00,
2013-01-02 01:36:00,3.9,-4.0,28.70,South,190,7.0,8.7,69,0.00,,,-99.99,FreeWX-Wi 1.01,2013-01-02 07:36:00,
2013-01-02 01:41:00,3.6,-4.4,28.70,SSW,196,6.0,6.0,69,0.00,,,-99.99,FreeWX-Wi 1.01,2013-01-02 07:41:00,
2013-01-02 01:47:00,3.0,-4.9,28.73,SSW,203,6.0,6.0,69,0.00,,,-99.99,FreeWX-Wi 1.01,2013-01-02 07:47:00,
2013-01-02 01:52:00,2.8,-4.9,28.73,SSW,208,5.0,5.0,69,0.00,,,-99.99,FreeWX-Wi 1.01,2013-01-02 07:52:00,
2013-01-02 01:57:00,3.0,-4.9,28.73,SSW,211,4.0,4.0,69,0.00,,,-99.99,FreeWX-Wi 1.01,2013-01-02 07:57:00,
2013-01-02 02:02:00,3.6,-4.4,28.73,SW,217,3.0,3.1,69,0.00,,,-99.99,FreeWX-Wi 1.01,2013-01-02 08:02:00,
2013-01-02 02:07:00,4.1,-3.8,28.73,SW,220,3.0,5.4,69,0.00,,,-99.99,FreeWX-Wi 1.01,2013-01-02 08:07:00,
2013-01-02 02:12:00,5.0,-2.9,28.73,SW,220,3.0,6.3,69,0.00,,,-99.99,FreeWX-Wi 1.01,2013-01-02 08:12:00,
2013-01-02 02:17:00,6.1,-1.8,28.73,SW,221,3.0,8.1,69,0.00,,,-99.99,FreeWX-Wi 1.01,2013-01-02 08:17:00,
2013-01-02 02:22:00,6.8,-1.1,28.73,SW,224,4.0,6.3,69,0.00,,,-99.99,FreeWX-Wi 1.01,2013-01-02 08:22:00,
2013-01-02 02:27:00,7.2,-0.8,28.73,SW,223,4.0,7.6,69,0.00,,,-99.99,FreeWX-Wi 1.01,2013-01-02 08:27:00,
2013-01-02 02:32:00,7.5,-0.4,28.73,SW,223,5.0,6.3,69,0.00,,,-99.99,FreeWX-Wi 1.01,2013-01-02 08:32:00,
2013-01-02 02:37:00,7.9,-0.2,28.73,SW,220,5.0,6.3,69,0.00,,,-99.99,FreeWX-Wi 1.01,2013-01-02 08:37:00,
2013-01-02 02:42:00,8.1,0.0,28.73,SW,217,5.0,8.1,69,0.00,,,-99.99,FreeWX-Wi 1.01,2013-01-02 08:42:00,
2013-01-02 02:48:00,8.1,0.0,28.73,SSW,213,5.0,8.1,69,0.00,,,-99.99,FreeWX-Wi 1.01,2013-01-02 08:48:00,
2013-01-02 02:53:00,8.2,0.1,28.73,SSW,211,5.0,7.2,69,0.00,,,-99.99,FreeWX-Wi 1.01,2013-01-02 08:53:00,
2013-01-02 02:58:00,8.4,0.3,28.73,SSW,210,5.0,5.8,69,0.00,,,-99.99,FreeWX-Wi 1.01,2013-01-02 08:58:00,
2013-01-02 03:03:00,8.6,0.5,28.73,SSW,209,5.0,8.1,69,0.00,,,-99.99,FreeWX-Wi 1.01,2013-01-02 09:03:00,
2013-01-02 03:08:00,8.6,0.5,28.73,SSW,208,5.0,8.1,69,0.00,,,-99.99,FreeWX-Wi 1.01,2013-01-02 09:08:00,
2013-01-02 03:13:00,8.6,0.5,28.73,SSW,207,5.0,6.3,69,0.00,,,-99.99,FreeWX-Wi 1.01,2013-01-02 09:13:00,
2013-01-02 03:18:00,8.8,0.7,28.70,SSW,205,5.0,7.6,69,0.00,,,-99.99,FreeWX-Wi 1.01,2013-01-02 09:18:00,
2013-01-02 03:23:00,8.8,0.7,28.70,SSW,202,5.0,7.6,69,0.00,,,-99.99,FreeWX-Wi 1.01,2013-01-02 09:23:00,
2013-01-02 03:28:00,9.0,0.9,28.70,SSW,201,5.0,7.6,69,0.00,,,-99.99,FreeWX-Wi 1.01,2013-01-02 09:28:00,
2013-01-02 03:33:00,9.1,1.0,28.70,SSW,200,5.0,6.3,69,0.00,,,-99.99,FreeWX-Wi 1.01,2013-01-02 09:33:00,
2013-01-02 03:38:00,9.3,1.2,28.70,SSW,202,5.0,8.3,69,0.00,,,-99.99,FreeWX-Wi 1.01,2013-01-02 09:38:00,
2013-01-02 03:43:00,9.3,1.2,28.70,SSW,204,5.0,8.3,69,0.00,,,-99.99,FreeWX-Wi 1.01,2013-01-02 09:43:00,
2013-01-02 03:48:00,9.5,1.4,28.70,SSW,204,5.0,8.7,69,0.00,,,-99.99,FreeWX-Wi 1.01,2013-01-02 09:48:00,
2013-01-02 03:54:00,9.5,1.4,28.70,SSW,206,6.0,8.7,69,0.00,,,-99.99,FreeWX-Wi 1.01,2013-01-02 09:54:00,
2013-01-02 03:59:00,9.7,1.6,28.70,SSW,208,6.0,8.1,69,0.00,,,-99.99,FreeWX-Wi 1.01,2013-01-02 09:59:00,
2013-01-02 04:04:00,9.7,1.6,28.70,SSW,209,6.0,7.6,69,0.00,,,-99.99,FreeWX-Wi 1.01,2013-01-02 10:04:00,
2013-01-02 04:09:00,9.9,1.8,28.70,SSW,205,6.0,6.3,69,0.00,,,-99.99,FreeWX-Wi 1.01,2013-01-02 10:09:00,
2013-01-02 04:14:00,9.5,1.4,28.70,SSW,198,5.0,5.4,69,0.00,,,-99.99,FreeWX-Wi 1.01,2013-01-02 10:14:00,
2013-01-02 04:19:00,9.1,1.0,28.70,SSW,192,5.0,5.0,69,0.00,,,-99.99,FreeWX-Wi 1.01,2013-01-02 10:19:00,
2013-01-02 04:24:00,9.0,0.9,28.70,South,183,4.0,4.0,69,0.00,,,-99.99,FreeWX-Wi 1.01,2013-01-02 10:24:00,
2013-01-02 04:29:00,8.8,0.7,28.67,South,176,4.0,4.0,69,0.00,,,-99.99,FreeWX-Wi 1.01,2013-01-02 10:29:00,
2013-01-02 04:34:00,9.0,0.9,28.67,SSE,168,3.0,4.0,69,0.00,,,-99.99,FreeWX-Wi 1.01,2013-01-02 10:34:00,
2013-01-02 04:40:00,9.1,1.0,28.67,SSE,168,3.0,4.0,69,0.00,,,-99.99,FreeWX-Wi 1.01,2013-01-02 10:40:00,
2013-01-02 04:45:00,9.3,1.2,28.67,South,169,3.0,4.0,69,0.00,,,-99.99,FreeWX-Wi 1.01,2013-01-02 10:45:00,
2013-01-02 04:50:00,9.5,1.4,28.67,South,171,3.0,4.0,69,0.00,,,-99.99,FreeWX-Wi 1.01,2013-01-02 10:50:00,
2013-01-02 04:55:00,9.7,1.6,28.67,South,174,3.0,5.8,69,0.00,,,-99.99,FreeWX-Wi 1.01,2013-01-02 10:55:00,
2013-01-02 05:00:00,9.7,1.6,28.67,South,175,3.0,5.8,69,0.00,,,-99.99,FreeWX-Wi 1.01,2013-01-02 11:00:00,
2013-01-02 05:05:00,9.9,1.8,28.67,South,178,3.0,4.9,69,0.00,,,-99.99,FreeWX-Wi 1.01,2013-01-02 11:05:00,
2013-01-02 05:10:00,9.9,1.8,28.67,South,179,3.0,5.4,69,0.00,,,-99.99,FreeWX-Wi 1.01,2013-01-02 11:10:00,
2013-01-02 05:15:00,9.9,1.8,28.67,South,180,3.0,4.9,69,0.00,,,-99.99,FreeWX-Wi 1.01,2013-01-02 11:15:00,
2013-01-02 05:20:00,9.9,1.8,28.67,South,178,3.0,4.9,69,0.00,,,-99.99,FreeWX-Wi 1.01,2013-01-02 11:20:00,
2013-01-02 05:25:00,9.9,1.8,28.67,South,176,3.0,4.9,69,0.00,,,-99.99,FreeWX-Wi 1.01,2013-01-02 11:25:00,
2013-01-02 05:30:00,9.7,1.6,28.67,South,176,4.0,5.8,69,0.00,,,-99.99,FreeWX-Wi 1.01,2013-01-02 11:30:00,
2013-01-02 05:35:00,9.7,1.6,28.67,South,178,4.0,5.4,69,0.00,,,-99.99,FreeWX-Wi 1.01,2013-01-02 11:35:00,
2013-01-02 05:40:00,9.7,1.6,28.67,South,180,4.0,6.3,69,0.00,,,-99.99,FreeWX-Wi 1.01,2013-01-02 11:40:00,
2013-01-02 05:46:00,9.5,1.4,28.67,South,180,4.0,5.8,69,0.00,,,-99.99,FreeWX-Wi 1.01,2013-01-02 11:46:00,
2013-01-02 05:51:00,9.3,1.2,28.67,South,179,4.0,6.3,69,0.00,,,-99.99,FreeWX-Wi 1.01,2013-01-02 11:51:00,
2013-01-02 05:56:00,9.1,1.0,28.67,South,177,4.0,7.2,69,0.00,,,-99.99,FreeWX-Wi 1.01,2013-01-02 11:56:00,
2013-01-02 06:01:00,9.0,0.9,28.67,South,174,4.0,6.3,69,0.00,,,-99.99,FreeWX-Wi 1.01,2013-01-02 12:01:00,
2013-01-02 06:06:00,8.6,0.5,28.67,South,171,5.0,6.3,69,0.00,,,-99.99,FreeWX-Wi 1.01,2013-01-02 12:06:00,
2013-01-02 06:11:00,8.4,0.3,28.67,South,170,5.0,5.8,69,0.00,,,-99.99,FreeWX-Wi 1.01,2013-01-02 12:11:00,
2013-01-02 06:16:00,8.4,0.3,28.67,SSE,168,4.0,5.8,69,0.00,,,-99.99,FreeWX-Wi 1.01,2013-01-02 12:16:00,
2013-01-02 06:21:00,8.4,0.3,28.67,South,169,4.0,5.4,69,0.00,,,-99.99,FreeWX-Wi 1.01,2013-01-02 12:21:00,
2013-01-02 06:26:00,8.2,0.1,28.67,SSE,168,4.0,6.3,69,0.00,,,-99.99,FreeWX-Wi 1.01,2013-01-02 12:26:00,
2013-01-02 06:31:00,8.1,0.0,28.67,South,170,4.0,5.4,69,0.00,,,-99.99,FreeWX-Wi 1.01,2013-01-02 12:31:00,
2013-01-02 06:36:00,7.9,-0.2,28.67,South,170,4.0,5.8,69,0.00,,,-99.99,FreeWX-Wi 1.01,2013-01-02 12:36:00,
2013-01-02 06:42:00,7.7,-0.4,28.67,South,170,4.0,5.4,69,0.00,,,-99.99,FreeWX-Wi 1.01,2013-01-02 12:42:00,
2013-01-02 06:47:00,7.7,-0.4,28.67,South,169,4.0,5.4,69,0.00,,,-99.99,FreeWX-Wi 1.01,2013-01-02 12:47:00,
2013-01-02 06:52:00,7.5,-0.4,28.67,SSE,168,4.0,4.9,69,0.00,,,-99.99,FreeWX-Wi 1.01,2013-01-02 12:52:00,
2013-01-02 06:57:00,7.3,-0.6,28.67,SSE,166,4.0,5.4,69,0.00,,,-99.99,FreeWX-Wi 1.01,2013-01-02 12:57:00,
2013-01-02 07:02:00,7.2,-0.8,28.67,SSE,163,4.0,4.5,69,0.00,,,-99.99,FreeWX-Wi 1.01,2013-01-02 13:02:00,
2013-01-02 07:07:00,6.8,-1.1,28.67,SSE,162,4.0,4.5,69,0.00,,,-99.99,FreeWX-Wi 1.01,2013-01-02 13:07:00,
2013-01-02 07:12:00,6.4,-1.5,28.67,SSE,162,4.0,4.0,69,0.00,,,-99.99,FreeWX-Wi 1.01,2013-01-02 13:12:00,
2013-01-02 07:17:00,6.1,-1.8,28.67,SSE,161,3.0,4.0,69,0.00,,,-99.99,FreeWX-Wi 1.01,2013-01-02 13:17:00,
2013-01-02 07:22:00,5.5,-2.4,28.67,SSE,160,3.0,3.6,69,0.00,,,-99.99,FreeWX-Wi 1.01,2013-01-02 13:22:00,
2013-01-02 07:27:00,5.2,-2.7,28.67,SSE,160,3.0,4.0,69,0.00,,,-99.99,FreeWX-Wi 1.01,2013-01-02 13:27:00,
2013-01-02 07:32:00,5.0,-2.9,28.67,SSE,160,3.0,4.0,69,0.00,,,-99.99,FreeWX-Wi 1.01,2013-01-02 13:32:00,
2013-01-02 07:38:00,5.0,-2.9,28.67,SSE,160,3.0,4.0,69,0.00,,,-99.99,FreeWX-Wi 1.01,2013-01-02 13:38:00,
2013-01-02 07:43:00,5.2,-2.7,28.67,SSE,163,3.0,4.0,69,0.00,,,-99.99,FreeWX-Wi 1.01,2013-01-02 13:43:00,
2013-01-02 07:48:00,5.4,-2.6,28.67,South,169,3.0,4.0,69,0.00,,,-99.99,FreeWX-Wi 1.01,2013-01-02 13:48:00,
2013-01-02 07:53:00,5.5,-2.4,28.67,South,172,3.0,5.4,69,0.00,,,-99.99,FreeWX-Wi 1.01,2013-01-02 13:53:00,
2013-01-02 07:58:00,5.5,-2.4,28.67,South,175,4.0,5.8,69,0.00,,,-99.99,FreeWX-Wi 1.01,2013-01-02 13:58:00,
2013-01-02 08:03:00,5.9,-2.0,28.67,South,177,4.0,5.8,69,0.00,,,-99.99,FreeWX-Wi 1.01,2013-01-02 14:03:00,
2013-01-02 08:08:00,5.9,-2.0,28.67,South,179,4.0,6.3,69,0.00,,,-99.99,FreeWX-Wi 1.01,2013-01-02 14:08:00,
2013-01-02 08:13:00,6.1,-1.8,28.67,South,177,4.0,5.8,69,0.00,,,-99.99,FreeWX-Wi 1.01,2013-01-02 14:13:00,
2013-01-02 08:18:00,6.1,-1.8,28.67,South,177,4.0,5.4,69,0.00,,,-99.99,FreeWX-Wi 1.01,2013-01-02 14:18:00,
2013-01-02 08:23:00,6.1,-1.8,28.67,South,178,4.0,6.7,69,0.00,,,-99.99,FreeWX-Wi 1.01,2013-01-02 14:23:00,
2013-01-02 08:28:00,6.1,-1.8,28.67,South,179,4.0,6.3,69,0.00,,,-99.99,FreeWX-Wi 1.01,2013-01-02 14:28:00,
2013-01-02 08:34:00,5.9,-2.0,28.67,South,179,4.0,6.7,69,0.00,,,-99.99,FreeWX-Wi 1.01,2013-01-02 14:34:00,
2013-01-02 08:39:00,5.5,-2.4,28.67,South,178,5.0,5.8,69,0.00,,,-99.99,FreeWX-Wi 1.01,2013-01-02 14:39:00,
2013-01-02 08:44:00,5.5,-2.4,28.67,South,178,5.0,6.3,69,0.00,,,-99.99,FreeWX-Wi 1.01,2013-01-02 14:44:00,
2013-01-02 08:49:00,5.7,-2.2,28.67,South,176,5.0,6.3,69,0.00,,,-99.99,FreeWX-Wi 1.01,2013-01-02 14:49:00,
2013-01-02 08:54:00,5.9,-2.0,28.67,South,174,5.0,6.7,69,0.00,,,-99.99,FreeWX-Wi 1.01,2013-01-02 14:54:00,
2013-01-02 08:59:00,5.9,-2.0,28.67,South,172,5.0,5.8,69,0.00,,,-99.99,FreeWX-Wi 1.01,2013-01-02 14:59:00,
2013-01-02 09:04:00,5.7,-2.2,28.67,South,171,5.0,6.3,69,0.00,,,-99.99,FreeWX-Wi 1.01,2013-01-02 15:04:00,
2013-01-02 09:09:00,5.5,-2.4,28.67,South,171,5.0,6.3,69,0.00,,,-99.99,FreeWX-Wi 1.01,2013-01-02 15:09:00,
2013-01-02 09:14:00,5.9,-2.0,28.67,South,171,5.0,5.8,69,0.00,,,-99.99,FreeWX-Wi 1.01,2013-01-02 15:14:00,
2013-01-02 09:19:00,5.5,-2.4,28.67,South,170,5.0,6.7,69,0.00,,,-99.99,FreeWX-Wi 1.01,2013-01-02 15:19:00,
2013-01-02 09:24:00,5.7,-2.2,28.67,South,171,5.0,6.7,69,0.00,,,-99.99,FreeWX-Wi 1.01,2013-01-02 15:24:00,
2013-01-02 09:29:00,5.9,-2.0,28.67,South,172,5.0,7.2,69,0.00,,,-99.99,FreeWX-Wi 1.01,2013-01-02 15:29:00,
2013-01-02 09:34:00,6.1,-1.8,28.67,SSE,168,5.0,6.7,69,0.00,,,-99.99,FreeWX-Wi 1.01,2013-01-02 15:34:00,
2013-01-02 09:39:00,6.3,-1.7,28.67,SSE,164,5.0,6.3,69,0.00,,,-99.99,FreeWX-Wi 1.01,2013-01-02 15:39:00,
2013-01-02 09:44:00,6.4,-1.5,28.67,SSE,161,5.0,6.3,69,0.00,,,-99.99,FreeWX-Wi 1.01,2013-01-02 15:44:00,
2013-01-02 09:50:00,6.8,-1.1,28.67,SSE,159,5.0,6.3,69,0.00,,,-99.99,FreeWX-Wi 1.01,2013-01-02 15:50:00,
2013-01-02 09:55:00,6.8,-1.1,28.67,SSE,158,5.0,6.7,69,0.00,,,-99.99,FreeWX-Wi 1.01,2013-01-02 15:55:00,
2013-01-02 10:00:00,7.5,-0.4,28.67,SSE,157,5.0,6.7,69,0.00,,,-99.99,FreeWX-Wi 1.01,2013-01-02 16:00:00,
2013-01-02 10:05:00,7.7,-0.4,28.67,SSE,160,5.0,6.3,69,0.00,,,-99.99,FreeWX-Wi 1.01,2013-01-02 16:05:00,
2013-01-02 10:10:00,7.3,-0.6,28.67,SSE,163,5.0,6.3,69,0.00,,,-99.99,FreeWX-Wi 1.01,2013-01-02 16:10:00,
2013-01-02 10:15:00,7.5,-0.4,28.67,SSE,166,5.0,7.6,69,0.00,,,-99.99,FreeWX-Wi 1.01,2013-01-02 16:15:00,
2013-01-02 10:20:00,7.7,-0.4,28.67,SSE,167,5.0,7.6,69,0.00,,,-99.99,FreeWX-Wi 1.01,2013-01-02 16:20:00,
2013-01-02 10:25:00,8.1,0.0,28.67,South,169,5.0,8.1,69,0.00,,,-99.99,FreeWX-Wi 1.01,2013-01-02 16:25:00,
2013-01-02 10:30:00,8.4,0.3,28.67,South,172,6.0,8.1,69,0.00,,,-99.99,FreeWX-Wi 1.01,2013-01-02 16:30:00,
2013-01-02 10:41:00,9.5,1.4,28.67,South,177,6.0,6.3,69,0.00,,,-99.99,FreeWX-Wi 1.01,2013-01-02 16:41:00,
2013-01-02 10:46:00,9.9,1.8,28.67,South,178,6.0,6.3,69,0.00,,,-99.99,FreeWX-Wi 1.01,2013-01-02 16:46:00,
2013-01-02 10:51:00,10.0,1.9,28.67,South,179,5.0,7.2,69,0.00,,,-99.99,FreeWX-Wi 1.01,2013-01-02 16:51:00,
2013-01-02 10:56:00,10.8,2.7,28.67,South,182,5.0,6.3,69,0.00,,,-99.99,FreeWX-Wi 1.01,2013-01-02 16:56:00,
2013-01-02 11:01:00,11.3,3.2,28.67,South,187,5.0,6.3,69,0.00,,,-99.99,FreeWX-Wi 1.01,2013-01-02 17:01:00,
2013-01-02 11:06:00,11.5,3.4,28.67,South,191,5.0,6.7,69,0.00,,,-99.99,FreeWX-Wi 1.01,2013-01-02 17:06:00,
2013-01-02 11:11:00,12.0,3.9,28.67,SSW,194,5.0,6.3,69,0.00,,,-99.99,FreeWX-Wi 1.01,2013-01-02 17:11:00,
2013-01-02 11:17:00,12.7,4.5,28.67,SSW,197,5.0,6.3,69,0.00,,,-99.99,FreeWX-Wi 1.01,2013-01-02 17:17:00,
2013-01-02 11:22:00,12.9,4.6,28.67,SSW,198,5.0,5.8,69,0.00,,,-99.99,FreeWX-Wi 1.01,2013-01-02 17:22:00,
2013-01-02 11:27:00,13.1,4.8,28.67,SSW,195,5.0,6.3,69,0.00,,,-99.99,FreeWX-Wi 1.01,2013-01-02 17:27:00,
2013-01-02 11:32:00,13.1,4.8,28.64,South,190,5.0,7.2,69,0.00,,,-99.99,FreeWX-Wi 1.01,2013-01-02 17:32:00,
2013-01-02 11:37:00,13.3,5.0,28.64,South,185,5.0,6.3,69,0.00,,,-99.99,FreeWX-Wi 1.01,2013-01-02 17:37:00,
2013-01-02 11:42:00,13.8,5.5,28.64,South,181,5.0,6.3,69,0.00,,,-99.99,FreeWX-Wi 1.01,2013-01-02 17:42:00,
2013-01-02 11:47:00,14.4,-0.4,28.67,South,180,5.0,6.3,51,0.00,,,-99.99,FreeWX-Wi 1.01,2013-01-02 17:47:00,
2013-01-02 11:52:00,13.8,-1.3,28.67,South,180,5.0,6.7,50,0.00,,,-99.99,FreeWX-Wi 1.01,2013-01-02 17:52:00,
2013-01-02 11:57:00,14.9,0.9,28.67,South,182,5.0,6.3,53,0.00,,,-99.99,FreeWX-Wi 1.01,2013-01-02 17:57:00,
2013-01-02 12:03:00,15.4,0.5,28.67,South,185,5.0,8.3,51,0.00,,,-99.99,FreeWX-Wi 1.01,2013-01-02 18:03:00,
2013-01-02 12:08:00,15.8,0.9,28.67,South,186,5.0,6.3,51,0.00,,,-99.99,FreeWX-Wi 1.01,2013-01-02 18:08:00,
2013-01-02 12:13:00,16.3,1.0,28.67,South,186,5.0,6.3,50,0.00,,,-99.99,FreeWX-Wi 1.01,2013-01-02 18:13:00,
2013-01-02 12:18:00,16.7,1.4,28.64,South,187,5.0,7.6,50,0.00,,,-99.99,FreeWX-Wi 1.01,2013-01-02 18:18:00,
2013-01-02 12:23:00,16.5,0.7,28.64,South,188,6.0,8.7,49,0.00,,,-99.99,FreeWX-Wi 1.01,2013-01-02 18:23:00,
2013-01-02 12:28:00,16.5,0.7,28.64,South,186,6.0,8.3,49,0.00,,,-99.99,FreeWX-Wi 1.01,2013-01-02 18:28:00,
2013-01-02 12:33:00,17.1,2.8,28.64,South,186,6.0,6.7,53,0.00,,,-99.99,FreeWX-Wi 1.01,2013-01-02 18:33:00,
2013-01-02 12:38:00,17.6,2.1,28.64,South,188,6.0,8.1,50,0.00,,,-99.99,FreeWX-Wi 1.01,2013-01-02 18:38:00,
2013-01-02 12:43:00,17.6,2.1,28.64,South,187,6.0,8.1,50,0.00,,,-99.99,FreeWX-Wi 1.01,2013-01-02 18:43:00,
2013-01-02 12:48:00,17.6,2.1,28.64,South,189,6.0,8.3,50,0.00,,,-99.99,FreeWX-Wi 1.01,2013-01-02 18:48:00,
2013-01-02 12:54:00,17.8,2.3,28.64,SSW,194,6.0,6.3,50,0.00,,,-99.99,FreeWX-Wi 1.01,2013-01-02 18:54:00,
2013-01-02 12:59:00,17.8,2.8,28.64,SSW,198,6.0,8.1,51,0.00,,,-99.99,FreeWX-Wi 1.01,2013-01-02 18:59:00,
2013-01-02 13:04:00,18.1,4.3,28.64,SSW,201,6.0,7.6,54,0.00,,,-99.99,FreeWX-Wi 1.01,2013-01-02 19:04:00,
2013-01-02 13:09:00,18.7,4.8,28.64,SSW,207,6.0,8.3,54,0.00,,,-99.99,FreeWX-Wi 1.01,2013-01-02 19:09:00,
2013-01-02 13:14:00,19.2,5.4,28.64,SW,214,6.0,8.7,54,0.00,,,-99.99,FreeWX-Wi 1.01,2013-01-02 19:14:00,
2013-01-02 13:19:00,19.2,5.4,28.64,SW,219,6.0,8.1,54,0.00,,,-99.99,FreeWX-Wi 1.01,2013-01-02 19:19:00,
2013-01-02 13:24:00,18.7,4.8,28.64,SW,218,6.0,11.4,54,0.00,,,-99.99,FreeWX-Wi 1.01,2013-01-02 19:24:00,
2013-01-02 13:29:00,18.7,5.5,28.64,SW,218,6.0,8.7,56,0.00,,,-99.99,FreeWX-Wi 1.01,2013-01-02 19:29:00,
2013-01-02 13:34:00,19.2,6.4,28.64,SW,217,6.0,7.6,57,0.00,,,-99.99,FreeWX-Wi 1.01,2013-01-02 19:34:00,
2013-01-02 13:40:00,19.6,6.4,28.64,SW,216,6.0,7.6,56,0.00,,,-99.99,FreeWX-Wi 1.01,2013-01-02 19:40:00,
2013-01-02 13:45:00,19.6,5.7,28.64,SW,216,6.0,6.3,54,0.00,,,-99.99,FreeWX-Wi 1.01,2013-01-02 19:45:00,
2013-01-02 13:50:00,20.1,6.6,28.64,SW,215,6.0,6.3,55,0.00,,,-99.99,FreeWX-Wi 1.01,2013-01-02 19:50:00,
2013-01-02 13:55:00,20.3,6.8,28.64,SW,218,5.0,6.3,55,0.00,,,-99.99,FreeWX-Wi 1.01,2013-01-02 19:55:00,
2013-01-02 14:00:00,20.3,6.8,28.64,SW,219,5.0,6.3,55,0.00,,,-99.99,FreeWX-Wi 1.01,2013-01-02 20:00:00,
2013-01-02 14:05:00,20.1,6.3,28.64,SW,220,5.0,7.6,54,0.00,,,-99.99,FreeWX-Wi 1.01,2013-01-02 20:05:00,
2013-01-02 14:10:00,19.9,6.8,28.64,SW,219,5.0,8.1,56,0.00,,,-99.99,FreeWX-Wi 1.01,2013-01-02 20:10:00,
2013-01-02 14:15:00,19.8,7.0,28.64,SW,219,6.0,8.7,57,0.00,,,-99.99,FreeWX-Wi 1.01,2013-01-02 20:15:00,
2013-01-02 14:20:00,19.6,7.2,28.64,SW,222,6.0,8.1,58,0.00,,,-99.99,FreeWX-Wi 1.01,2013-01-02 20:20:00,
2013-01-02 14:25:00,19.6,7.2,28.64,SW,224,6.0,10.1,58,0.00,,,-99.99,FreeWX-Wi 1.01,2013-01-02 20:25:00,
2013-01-02 14:30:00,19.2,7.7,28.64,SW,227,7.0,10.5,60,0.00,,,-99.99,FreeWX-Wi 1.01,2013-01-02 20:30:00,
2013-01-02 14:35:00,19.2,7.7,28.64,SW,228,7.0,8.3,60,0.00,,,-99.99,FreeWX-Wi 1.01,2013-01-02 20:35:00,
2013-01-02 14:40:00,19.4,8.2,28.64,SW,228,7.0,8.3,61,0.00,,,-99.99,FreeWX-Wi 1.01,2013-01-02 20:40:00,
2013-01-02 14:46:00,19.4,8.2,28.67,SW,227,7.0,8.7,61,0.00,,,-99.99,FreeWX-Wi 1.01,2013-01-02 20:46:00,
2013-01-02 14:51:00,19.2,8.1,28.67,SW,227,7.0,8.7,61,0.00,,,-99.99,FreeWX-Wi 1.01,2013-01-02 20:51:00,
2013-01-02 14:56:00,19.2,8.4,28.67,SW,226,6.0,8.1,62,0.00,,,-99.99,FreeWX-Wi 1.01,2013-01-02 20:56:00,
2013-01-02 15:01:00,19.2,8.8,28.67,SW,223,6.0,8.3,63,0.00,,,-99.99,FreeWX-Wi 1.01,2013-01-02 21:01:00,
2013-01-02 15:06:00,19.2,8.8,28.67,SW,224,6.0,7.6,63,0.00,,,-99.99,FreeWX-Wi 1.01,2013-01-02 21:06:00,
2013-01-02 15:11:00,19.2,8.8,28.67,SW,227,6.0,6.3,63,0.00,,,-99.99,FreeWX-Wi 1.01,2013-01-02 21:11:00,
2013-01-02 15:16:00,19.2,9.1,28.67,SW,231,5.0,5.8,64,0.00,,,-99.99,FreeWX-Wi 1.01,2013-01-02 21:16:00,
2013-01-02 15:21:00,19.4,9.5,28.67,SW,231,5.0,5.8,65,0.00,,,-99.99,FreeWX-Wi 1.01,2013-01-02 21:21:00,
2013-01-02 15:26:00,19.4,9.9,28.67,SW,231,5.0,6.7,66,0.00,,,-99.99,FreeWX-Wi 1.01,2013-01-02 21:26:00,
2013-01-02 15:31:00,19.4,9.9,28.64,SW,233,4.0,5.8,66,0.00,,,-99.99,FreeWX-Wi 1.01,2013-01-02 21:31:00,
2013-01-02 15:36:00,19.6,10.4,28.64,SW,232,4.0,6.3,67,0.00,,,-99.99,FreeWX-Wi 1.01,2013-01-02 21:36:00,
2013-01-02 15:41:00,19.6,10.4,28.64,SW,231,4.0,5.8,67,0.00,,,-99.99,FreeWX-Wi 1.01,2013-01-02 21:41:00,
2013-01-02 15:46:00,19.8,11.3,28.67,SW,232,4.0,5.8,69,0.00,,,-99.99,FreeWX-Wi 1.01,2013-01-02 21:46:00,
2013-01-02 15:51:00,19.9,11.8,28.67,SW,234,4.0,4.9,70,0.00,,,-99.99,FreeWX-Wi 1.01,2013-01-02 21:51:00,
2013-01-02 15:57:00,19.9,11.5,28.67,SW,233,4.0,5.8,69,0.00,,,-99.99,FreeWX-Wi 1.01,2013-01-02 21:57:00,
2013-01-02 16:02:00,20.1,11.7,28.67,SW,235,4.0,5.8,69,0.00,,,-99.99,FreeWX-Wi 1.01,2013-01-02 22:02:00,
2013-01-02 16:07:00,19.9,11.5,28.67,SW,236,4.0,5.8,69,0.00,,,-99.99,FreeWX-Wi 1.01,2013-01-02 22:07:00,
2013-01-02 16:12:00,19.8,11.7,28.67,SW,234,4.0,6.3,70,0.00,,,-99.99,FreeWX-Wi 1.01,2013-01-02 22:12:00,
2013-01-02 16:55:00,19.8,13.1,28.67,SSW,204,5.0,5.8,75,0.00,,,-99.99,FreeWX-Wi 1.01,2013-01-02 22:55:00,
2013-01-02 17:22:00,20.1,14.0,28.70,SSW,197,4.0,5.4,77,0.00,,,-99.99,FreeWX-Wi 1.01,2013-01-02 23:22:00,
2013-01-02 17:27:00,20.3,14.5,28.70,SSW,199,4.0,5.8,78,0.00,,,-99.99,FreeWX-Wi 1.01,2013-01-02 23:27:00,
2013-01-02 17:32:00,20.3,14.5,28.70,SSW,200,4.0,5.4,78,0.00,,,-99.99,FreeWX-Wi 1.01,2013-01-02 23:32:00,
2013-01-02 17:37:00,20.3,14.5,28.70,SSW,201,4.0,5.8,78,0.00,,,-99.99,FreeWX-Wi 1.01,2013-01-02 23:37:00,
2013-01-02 17:42:00,20.5,15.1,28.70,SSW,199,4.0,5.8,79,0.00,,,-99.99,FreeWX-Wi 1.01,2013-01-02 23:42:00,
2013-01-02 17:47:00,20.5,15.1,28.70,SSW,199,4.0,5.8,79,0.00,,,-99.99,FreeWX-Wi 1.01,2013-01-02 23:47:00,
2013-01-02 17:52:00,20.5,15.1,28.70,SSW,200,4.0,6.7,79,0.00,,,-99.99,FreeWX-Wi 1.01,2013-01-02 23:52:00,
2013-01-02 17:58:00,20.7,15.3,28.70,SSW,202,4.0,5.8,79,0.00,,,-99.99,FreeWX-Wi 1.01,2013-01-02 23:58:00,
2013-01-02 18:03:00,20.8,15.6,28.70,SSW,204,4.0,6.3,80,0.00,,,-99.99,FreeWX-Wi 1.01,2013-01-03 00:03:00,
2013-01-02 18:08:00,20.8,15.6,28.70,SSW,206,5.0,6.7,80,0.00,,,-99.99,FreeWX-Wi 1.01,2013-01-03 00:08:00,
2013-01-02 18:13:00,20.8,15.6,28.70,SSW,207,5.0,6.3,80,0.00,,,-99.99,FreeWX-Wi 1.01,2013-01-03 00:13:00,
2013-01-02 18:18:00,20.8,16.0,28.70,SSW,210,5.0,5.8,81,0.00,,,-99.99,FreeWX-Wi 1.01,2013-01-03 00:18:00,
2013-01-02 18:23:00,20.8,16.0,28.70,SSW,212,5.0,5.4,81,0.00,,,-99.99,FreeWX-Wi 1.01,2013-01-03 00:23:00,
2013-01-02 18:28:00,21.0,16.2,28.70,SW,214,5.0,5.8,81,0.00,,,-99.99,FreeWX-Wi 1.01,2013-01-03 00:28:00,
2013-01-02 18:33:00,21.0,16.2,28.70,SW,217,5.0,5.8,81,0.00,,,-99.99,FreeWX-Wi 1.01,2013-01-03 00:33:00,
2013-01-02 18:38:00,21.2,16.5,28.70,SW,222,5.0,8.3,82,0.00,,,-99.99,FreeWX-Wi 1.01,2013-01-03 00:38:00,
2013-01-02 18:44:00,21.4,16.7,28.70,SW,226,5.0,6.7,82,0.00,,,-99.99,FreeWX-Wi 1.01,2013-01-03 00:44:00,
2013-01-02 18:49:00,21.6,17.2,28.70,SW,229,5.0,6.3,83,0.00,,,-99.99,FreeWX-Wi 1.01,2013-01-03 00:49:00,
2013-01-02 18:54:00,21.7,17.6,28.70,SW,232,5.0,5.4,84,0.00,,,-99.99,FreeWX-Wi 1.01,2013-01-03 00:54:00,
2013-01-02 18:59:00,21.9,18.1,28.70,SW,234,5.0,5.4,85,0.00,,,-99.99,FreeWX-Wi 1.01,2013-01-03 00:59:00,
2013-01-02 19:04:00,22.1,18.5,28.70,SW,236,4.0,5.4,86,0.00,,,-99.99,FreeWX-Wi 1.01,2013-01-03 01:04:00,
2013-01-02 19:09:00,22.6,19.4,28.70,WSW,237,4.0,5.8,87,0.00,,,-99.99,FreeWX-Wi 1.01,2013-01-03 01:09:00,
2013-01-02 19:14:00,23.0,20.3,28.70,WSW,238,4.0,5.4,89,0.00,,,-99.99,FreeWX-Wi 1.01,2013-01-03 01:14:00,
2013-01-02 19:19:00,23.4,20.8,28.70,WSW,239,3.0,3.6,90,0.00,,,-99.99,FreeWX-Wi 1.01,2013-01-03 01:19:00,
2013-01-02 19:24:00,23.5,21.0,28.70,WSW,241,3.0,3.1,90,0.00,,,-99.99,FreeWX-Wi 1.01,2013-01-03 01:24:00,
2013-01-02 19:29:00,24.1,21.6,28.70,WSW,243,2.0,3.6,90,0.00,,,-99.99,FreeWX-Wi 1.01,2013-01-03 01:29:00,
2013-01-02 19:35:00,24.4,21.7,28.70,WSW,247,2.0,3.1,89,0.00,,,-99.99,FreeWX-Wi 1.01,2013-01-03 01:35:00,
2013-01-02 19:40:00,24.8,22.1,28.70,WSW,251,2.0,3.1,89,0.00,,,-99.99,FreeWX-Wi 1.01,2013-01-03 01:40:00,
2013-01-02 19:45:00,25.0,21.7,28.70,WSW,256,1.0,0.0,87,0.00,,,-99.99,FreeWX-Wi 1.01,2013-01-03 01:45:00,
2013-01-02 19:50:00,25.0,21.7,28.70,West,264,1.0,3.6,87,0.00,,,-99.99,FreeWX-Wi 1.01,2013-01-03 01:50:00,
2013-01-02 19:55:00,25.0,21.4,28.70,West,275,1.0,3.1,86,0.00,,,-99.99,FreeWX-Wi 1.01,2013-01-03 01:55:00,
2013-01-02 20:00:00,25.0,21.4,28.73,WNW,284,1.0,4.9,86,0.00,,,-99.99,FreeWX-Wi 1.01,2013-01-03 02:00:00,
2013-01-02 20:05:00,25.0,21.2,28.73,WNW,292,2.0,5.8,85,0.00,,,-99.99,FreeWX-Wi 1.01,2013-01-03 02:05:00,
2013-01-02 20:10:00,25.0,20.8,28.73,WNW,299,2.0,4.9,84,0.00,,,-99.99,FreeWX-Wi 1.01,2013-01-03 02:10:00,
2013-01-02 20:15:00,25.0,20.8,28.73,WNW,302,3.0,6.3,84,0.00,,,-99.99,FreeWX-Wi 1.01,2013-01-03 02:15:00,
2013-01-02 20:20:00,24.8,21.0,28.73,NW,304,3.0,4.9,85,0.00,,,-99.99,FreeWX-Wi 1.01,2013-01-03 02:20:00,
2013-01-02 20:25:00,25.0,21.2,28.73,WNW,303,4.0,5.8,85,0.00,,,-99.99,FreeWX-Wi 1.01,2013-01-03 02:25:00,
2013-01-02 20:30:00,24.8,20.7,28.73,WNW,302,4.0,5.8,84,0.00,,,-99.99,FreeWX-Wi 1.01,2013-01-03 02:30:00,
2013-01-02 20:35:00,24.8,20.7,28.73,WNW,301,4.0,6.3,84,0.00,,,-99.99,FreeWX-Wi 1.01,2013-01-03 02:35:00,
2013-01-02 20:40:00,24.6,20.1,28.73,WNW,300,4.0,6.3,83,0.00,,,-99.99,FreeWX-Wi 1.01,2013-01-03 02:40:00,
2013-01-02 20:46:00,24.6,20.5,28.73,WNW,300,4.0,5.8,84,0.00,,,-99.99,FreeWX-Wi 1.01,2013-01-03 02:46:00,
2013-01-02 20:51:00,24.6,20.1,28.73,WNW,300,4.0,6.3,83,0.00,,,-99.99,FreeWX-Wi 1.01,2013-01-03 02:51:00,
2013-01-02 20:56:00,24.8,20.3,28.73,WNW,299,4.0,6.3,83,0.00,,,-99.99,FreeWX-Wi 1.01,2013-01-03 02:56:00,
2013-01-02 21:01:00,24.8,20.7,28.73,WNW,299,4.0,7.6,84,0.00,,,-99.99,FreeWX-Wi 1.01,2013-01-03 03:01:00,
2013-01-02 21:06:00,24.8,21.0,28.73,WNW,298,4.0,6.3,85,0.00,,,-99.99,FreeWX-Wi 1.01,2013-01-03 03:06:00,
2013-01-02 21:11:00,24.6,20.8,28.73,WNW,298,4.0,6.3,85,0.00,,,-99.99,FreeWX-Wi 1.01,2013-01-03 03:11:00,
2013-01-02 21:16:00,24.8,21.0,28.73,WNW,296,4.0,5.4,85,0.00,,,-99.99,FreeWX-Wi 1.01,2013-01-03 03:16:00,
2013-01-02 21:21:00,24.8,20.7,28.73,WNW,296,4.0,4.9,84,0.00,,,-99.99,FreeWX-Wi 1.01,2013-01-03 03:21:00,
2013-01-02 21:26:00,25.0,20.5,28.73,WNW,297,4.0,5.8,83,0.00,,,-99.99,FreeWX-Wi 1.01,2013-01-03 03:26:00,
2013-01-02 21:37:00,25.0,20.5,28.73,WNW,298,3.0,5.4,83,0.00,,,-99.99,FreeWX-Wi 1.01,2013-01-03 03:37:00,
2013-01-02 21:47:00,25.2,20.5,28.73,WNW,299,3.0,5.4,82,0.00,,,-99.99,FreeWX-Wi 1.01,2013-01-03 03:47:00,
2013-01-02 21:52:00,25.2,20.5,28.73,WNW,300,3.0,5.4,82,0.00,,,-99.99,FreeWX-Wi 1.01,2013-01-03 03:52:00,
2013-01-02 21:57:00,25.2,20.7,28.73,WNW,299,3.0,4.0,83,0.00,,,-99.99,FreeWX-Wi 1.01,2013-01-03 03:57:00,
2013-01-02 22:02:00,25.3,20.7,28.73,WNW,296,3.0,5.8,82,0.00,,,-99.99,FreeWX-Wi 1.01,2013-01-03 04:02:00,
2013-01-02 22:08:00,25.3,19.4,28.73,WNW,296,3.0,8.3,78,0.00,,,-99.99,FreeWX-Wi 1.01,2013-01-03 04:08:00,
2013-01-02 22:13:00,25.2,19.0,28.73,WNW,296,4.0,11.0,77,0.00,,,-99.99,FreeWX-Wi 1.01,2013-01-03 04:13:00,
2013-01-02 22:18:00,24.8,18.9,28.76,WNW,296,4.0,10.5,78,0.00,,,-99.99,FreeWX-Wi 1.01,2013-01-03 04:18:00,
2013-01-02 22:23:00,24.4,17.6,28.76,WNW,297,5.0,8.7,75,0.00,,,-99.99,FreeWX-Wi 1.01,2013-01-03 04:23:00,
2013-01-02 22:28:00,23.5,13.8,28.76,WNW,301,6.0,10.1,66,0.00,,,-99.99,FreeWX-Wi 1.01,2013-01-03 04:28:00,
2013-01-02 22:33:00,23.0,14.0,28.76,NW,307,6.0,8.1,68,0.00,,,-99.99,FreeWX-Wi 1.01,2013-01-03 04:33:00,
2013-01-02 22:38:00,22.6,15.3,28.76,NW,310,6.0,8.3,73,0.00,,,-99.99,FreeWX-Wi 1.01,2013-01-03 04:38:00,
2013-01-02 22:43:00,22.6,14.7,28.76,NW,314,6.0,11.0,71,0.00,,,-99.99,FreeWX-Wi 1.01,2013-01-03 04:43:00,
2013-01-02 22:48:00,22.5,14.9,28.76,NW,316,6.0,8.7,72,0.00,,,-99.99,FreeWX-Wi 1.01,2013-01-03 04:48:00,
2013-01-02 22:53:00,21.9,14.4,28.76,NW,318,6.0,8.3,72,0.00,,,-99.99,FreeWX-Wi 1.01,2013-01-03 04:53:00,
2013-01-02 22:59:00,21.6,14.0,28.76,NW,316,6.0,8.3,72,0.00,,,-99.99,FreeWX-Wi 1.01,2013-01-03 04:59:00,
2013-01-02 23:04:00,21.2,13.6,28.76,NW,316,6.0,7.6,72,0.00,,,-99.99,FreeWX-Wi 1.01,2013-01-03 05:04:00,
2013-01-02 23:09:00,21.2,13.6,28.76,NW,315,6.0,11.0,72,0.00,,,-99.99,FreeWX-Wi 1.01,2013-01-03 05:09:00,
2013-01-02 23:14:00,20.8,13.3,28.76,NW,314,6.0,11.0,72,0.00,,,-99.99,FreeWX-Wi 1.01,2013-01-03 05:14:00,
2013-01-02 23:19:00,20.7,13.1,28.76,NW,314,6.0,10.1,72,0.00,,,-99.99,FreeWX-Wi 1.01,2013-01-03 05:19:00,
2013-01-02 23:24:00,20.5,12.6,28.76,NW,313,6.0,8.7,71,0.00,,,-99.99,FreeWX-Wi 1.01,2013-01-03 05:24:00,
2013-01-02 23:29:00,20.1,12.2,28.79,NW,314,6.0,8.7,71,0.00,,,-99.99,FreeWX-Wi 1.01,2013-01-03 05:29:00,
2013-01-02 23:34:00,20.3,12.4,28.79,NW,315,6.0,8.7,71,0.00,,,-99.99,FreeWX-Wi 1.01,2013-01-03 05:34:00,
2013-01-02 23:39:00,20.3,11.8,28.79,NW,315,6.0,10.5,69,0.00,,,-99.99,FreeWX-Wi 1.01,2013-01-03 05:39:00,
2013-01-02 23:44:00,19.6,11.1,28.79,NW,314,6.0,8.7,69,0.00,,,-99.99,FreeWX-Wi 1.01,2013-01-03 05:44:00,
2013-01-02 23:49:00,19.6,10.4,28.79,NW,315,6.0,10.1,67,0.00,,,-99.99,FreeWX-Wi 1.01,2013-01-03 05:49:00,
2013-01-02 23:54:00,19.2,10.4,28.79,NW,314,7.0,8.7,68,0.00,,,-99.99,FreeWX-Wi 1.01,2013-01-03 05:54:00,